sensor_id;sensor_type;location;lat;lon;timestamp;P1;durP1;ratioP1;P2;durP2;ratioP2
27576;SDS011;15011;53.380;10.034;2022-12-08T00:03:18;73.75;;;29.30;;
27576;SDS011;15011;53.380;10.034;2022-12-08T00:08:19;46.20;;;23.98;;
27576;SDS011;15011;53.380;10.034;2022-12-08T00:13:38;48.97;;;23.27;;
27576;SDS011;15011;53.380;10.034;2022-12-08T00:18:38;56.97;;;27.92;;
27576;SDS011;15011;53.380;10.034;2022-12-08T00:23:38;43.55;;;24.77;;
27576;SDS011;15011;53.380;10.034;2022-12-08T00:28:39;53.20;;;26.70;;
27576;SDS011;15011;53.380;10.034;2022-12-08T00:33:39;53.70;;;28.33;;
27576;SDS011;15011;53.380;10.034;2022-12-08T00:38:40;53.45;;;25.35;;
27576;SDS011;15011;53.380;10.034;2022-12-08T00:43:41;41.88;;;23.10;;
27576;SDS011;15011;53.380;10.034;2022-12-08T00:48:43;43.00;;;24.65;;
27576;SDS011;15011;53.380;10.034;2022-12-08T00:53:43;34.60;;;20.60;;
27576;SDS011;15011;53.380;10.034;2022-12-08T00:58:44;42.65;;;23.13;;
27576;SDS011;15011;53.380;10.034;2022-12-08T01:03:44;40.88;;;23.65;;
27576;SDS011;15011;53.380;10.034;2022-12-08T01:08:44;34.75;;;21.55;;
27576;SDS011;15011;53.380;10.034;2022-12-08T01:13:45;42.70;;;23.40;;
27576;SDS011;15011;53.380;10.034;2022-12-08T01:18:46;44.90;;;24.40;;
27576;SDS011;15011;53.380;10.034;2022-12-08T01:23:46;40.80;;;24.15;;
27576;SDS011;15011;53.380;10.034;2022-12-08T01:28:47;42.83;;;23.05;;
27576;SDS011;15011;53.380;10.034;2022-12-08T01:33:48;34.20;;;21.20;;
27576;SDS011;15011;53.380;10.034;2022-12-08T01:38:49;45.63;;;22.33;;
27576;SDS011;15011;53.380;10.034;2022-12-08T01:44:00;35.15;;;21.13;;
27576;SDS011;15011;53.380;10.034;2022-12-08T01:49:04;34.42;;;20.27;;
27576;SDS011;15011;53.380;10.034;2022-12-08T01:54:08;37.60;;;22.98;;
27576;SDS011;15011;53.380;10.034;2022-12-08T01:59:10;34.40;;;21.50;;
27576;SDS011;15011;53.380;10.034;2022-12-08T02:04:11;33.97;;;20.38;;
27576;SDS011;15011;53.380;10.034;2022-12-08T02:09:11;31.30;;;19.52;;
27576;SDS011;15011;53.380;10.034;2022-12-08T02:14:12;35.42;;;19.63;;
27576;SDS011;15011;53.380;10.034;2022-12-08T02:35:18;31.65;;;19.48;;
27576;SDS011;15011;53.380;10.034;2022-12-08T02:40:48;33.28;;;19.75;;
27576;SDS011;15011;53.380;10.034;2022-12-08T02:45:54;35.22;;;18.23;;
27576;SDS011;15011;53.380;10.034;2022-12-08T02:50:59;29.50;;;18.05;;
27576;SDS011;15011;53.380;10.034;2022-12-08T02:56:02;30.67;;;18.13;;
27576;SDS011;15011;53.380;10.034;2022-12-08T03:01:22;28.83;;;16.73;;
27576;SDS011;15011;53.380;10.034;2022-12-08T03:11:45;28.73;;;17.80;;
27576;SDS011;15011;53.380;10.034;2022-12-08T03:16:48;26.10;;;15.68;;
27576;SDS011;15011;53.380;10.034;2022-12-08T03:21:52;23.20;;;14.63;;
27576;SDS011;15011;53.380;10.034;2022-12-08T03:27:03;30.23;;;18.83;;
27576;SDS011;15011;53.380;10.034;2022-12-08T03:32:15;30.60;;;18.00;;
27576;SDS011;15011;53.380;10.034;2022-12-08T03:37:21;27.48;;;17.40;;
27576;SDS011;15011;53.380;10.034;2022-12-08T03:42:22;25.65;;;17.30;;
27576;SDS011;15011;53.380;10.034;2022-12-08T03:47:22;22.75;;;14.23;;
27576;SDS011;15011;53.380;10.034;2022-12-08T03:52:23;26.05;;;17.00;;
27576;SDS011;15011;53.380;10.034;2022-12-08T03:57:23;26.55;;;16.90;;
27576;SDS011;15011;53.380;10.034;2022-12-08T04:02:24;24.13;;;13.70;;
27576;SDS011;15011;53.380;10.034;2022-12-08T04:07:24;28.65;;;18.20;;
27576;SDS011;15011;53.380;10.034;2022-12-08T04:12:25;20.83;;;14.60;;
27576;SDS011;15011;53.380;10.034;2022-12-08T04:17:25;27.48;;;15.35;;
27576;SDS011;15011;53.380;10.034;2022-12-08T04:22:26;25.48;;;16.17;;
27576;SDS011;15011;53.380;10.034;2022-12-08T04:27:26;25.08;;;16.67;;
27576;SDS011;15011;53.380;10.034;2022-12-08T04:32:26;22.33;;;15.30;;
27576;SDS011;15011;53.380;10.034;2022-12-08T04:37:27;22.08;;;14.85;;
27576;SDS011;15011;53.380;10.034;2022-12-08T04:42:28;21.05;;;15.43;;
27576;SDS011;15011;53.380;10.034;2022-12-08T04:47:28;20.73;;;14.50;;
27576;SDS011;15011;53.380;10.034;2022-12-08T04:52:29;18.75;;;13.82;;
27576;SDS011;15011;53.380;10.034;2022-12-08T04:57:29;17.27;;;12.82;;
27576;SDS011;15011;53.380;10.034;2022-12-08T05:02:29;16.45;;;12.25;;
27576;SDS011;15011;53.380;10.034;2022-12-08T05:07:30;14.77;;;11.48;;
27576;SDS011;15011;53.380;10.034;2022-12-08T05:12:30;19.02;;;12.00;;
27576;SDS011;15011;53.380;10.034;2022-12-08T05:17:31;12.63;;;9.40;;
27576;SDS011;15011;53.380;10.034;2022-12-08T05:22:31;15.23;;;11.65;;
27576;SDS011;15011;53.380;10.034;2022-12-08T05:27:32;13.80;;;11.05;;
27576;SDS011;15011;53.380;10.034;2022-12-08T05:32:32;13.18;;;9.23;;
27576;SDS011;15011;53.380;10.034;2022-12-08T05:37:33;16.52;;;11.52;;
27576;SDS011;15011;53.380;10.034;2022-12-08T05:42:33;13.30;;;9.25;;
27576;SDS011;15011;53.380;10.034;2022-12-08T05:47:34;10.07;;;7.70;;
27576;SDS011;15011;53.380;10.034;2022-12-08T05:52:34;10.77;;;8.32;;
27576;SDS011;15011;53.380;10.034;2022-12-08T05:57:34;10.00;;;7.85;;
27576;SDS011;15011;53.380;10.034;2022-12-08T06:02:35;9.95;;;7.07;;
27576;SDS011;15011;53.380;10.034;2022-12-08T06:07:35;11.05;;;8.35;;
27576;SDS011;15011;53.380;10.034;2022-12-08T06:12:36;12.93;;;9.95;;
27576;SDS011;15011;53.380;10.034;2022-12-08T06:17:36;14.93;;;10.10;;
27576;SDS011;15011;53.380;10.034;2022-12-08T06:22:37;21.02;;;12.43;;
27576;SDS011;15011;53.380;10.034;2022-12-08T06:27:37;17.80;;;12.68;;
27576;SDS011;15011;53.380;10.034;2022-12-08T06:32:38;15.27;;;10.80;;
27576;SDS011;15011;53.380;10.034;2022-12-08T06:37:38;16.67;;;11.80;;
27576;SDS011;15011;53.380;10.034;2022-12-08T06:42:38;14.45;;;10.15;;
27576;SDS011;15011;53.380;10.034;2022-12-08T06:47:46;13.23;;;9.90;;
27576;SDS011;15011;53.380;10.034;2022-12-08T06:52:46;13.02;;;9.82;;
27576;SDS011;15011;53.380;10.034;2022-12-08T06:57:47;14.60;;;10.00;;
27576;SDS011;15011;53.380;10.034;2022-12-08T07:02:47;15.25;;;10.85;;
27576;SDS011;15011;53.380;10.034;2022-12-08T07:07:48;14.82;;;10.75;;
27576;SDS011;15011;53.380;10.034;2022-12-08T07:12:48;14.88;;;10.90;;
27576;SDS011;15011;53.380;10.034;2022-12-08T07:17:49;14.70;;;11.10;;
27576;SDS011;15011;53.380;10.034;2022-12-08T07:22:50;18.00;;;12.60;;
27576;SDS011;15011;53.380;10.034;2022-12-08T07:27:51;22.33;;;14.60;;
27576;SDS011;15011;53.380;10.034;2022-12-08T07:32:52;23.20;;;15.43;;
27576;SDS011;15011;53.380;10.034;2022-12-08T07:37:52;33.88;;;17.75;;
27576;SDS011;15011;53.380;10.034;2022-12-08T07:42:53;39.80;;;20.08;;
27576;SDS011;15011;53.380;10.034;2022-12-08T07:47:53;28.53;;;17.80;;
27576;SDS011;15011;53.380;10.034;2022-12-08T07:52:54;25.95;;;17.98;;
27576;SDS011;15011;53.380;10.034;2022-12-08T07:57:54;25.77;;;17.02;;
27576;SDS011;15011;53.380;10.034;2022-12-08T08:02:54;25.92;;;18.08;;
27576;SDS011;15011;53.380;10.034;2022-12-08T08:07:55;36.58;;;20.92;;
27576;SDS011;15011;53.380;10.034;2022-12-08T08:12:59;46.67;;;23.25;;
27576;SDS011;15011;53.380;10.034;2022-12-08T08:17:59;45.88;;;23.08;;
27576;SDS011;15011;53.380;10.034;2022-12-08T08:23:00;31.98;;;20.15;;
27576;SDS011;15011;53.380;10.034;2022-12-08T08:28:00;36.20;;;20.88;;
27576;SDS011;15011;53.380;10.034;2022-12-08T08:33:01;41.33;;;22.23;;
27576;SDS011;15011;53.380;10.034;2022-12-08T08:38:01;36.00;;;20.35;;
27576;SDS011;15011;53.380;10.034;2022-12-08T08:43:02;39.70;;;20.33;;
27576;SDS011;15011;53.380;10.034;2022-12-08T08:48:03;43.60;;;22.73;;
27576;SDS011;15011;53.380;10.034;2022-12-08T08:53:04;32.80;;;18.38;;
27576;SDS011;15011;53.380;10.034;2022-12-08T08:58:04;50.53;;;22.73;;
27576;SDS011;15011;53.380;10.034;2022-12-08T09:03:05;38.83;;;20.75;;
27576;SDS011;15011;53.380;10.034;2022-12-08T09:08:06;31.17;;;18.23;;
27576;SDS011;15011;53.380;10.034;2022-12-08T09:13:07;32.10;;;19.35;;
27576;SDS011;15011;53.380;10.034;2022-12-08T09:18:08;38.40;;;20.60;;
27576;SDS011;15011;53.380;10.034;2022-12-08T09:23:08;25.70;;;16.58;;
27576;SDS011;15011;53.380;10.034;2022-12-08T09:28:08;33.38;;;18.27;;
27576;SDS011;15011;53.380;10.034;2022-12-08T09:33:09;29.83;;;17.87;;
27576;SDS011;15011;53.380;10.034;2022-12-08T09:38:09;27.67;;;17.15;;
27576;SDS011;15011;53.380;10.034;2022-12-08T09:43:18;30.63;;;17.35;;
27576;SDS011;15011;53.380;10.034;2022-12-08T09:48:30;29.85;;;15.85;;
27576;SDS011;15011;53.380;10.034;2022-12-08T09:53:47;12.95;;;8.77;;
27576;SDS011;15011;53.380;10.034;2022-12-08T09:58:51;10.85;;;6.82;;
27576;SDS011;15011;53.380;10.034;2022-12-08T10:03:56;8.93;;;5.20;;
27576;SDS011;15011;53.380;10.034;2022-12-08T10:14:33;10.05;;;4.78;;
27576;SDS011;15011;53.380;10.034;2022-12-08T10:19:39;8.55;;;4.28;;
27576;SDS011;15011;53.380;10.034;2022-12-08T10:24:42;8.98;;;4.57;;
27576;SDS011;15011;53.380;10.034;2022-12-08T10:29:48;4.53;;;3.40;;
27576;SDS011;15011;53.380;10.034;2022-12-08T10:45:38;3.23;;;2.47;;
27576;SDS011;15011;53.380;10.034;2022-12-08T11:06:15;2.72;;;2.20;;
27576;SDS011;15011;53.380;10.034;2022-12-08T11:11:20;3.60;;;2.17;;
27576;SDS011;15011;53.380;10.034;2022-12-08T11:16:21;2.85;;;1.88;;
27576;SDS011;15011;53.380;10.034;2022-12-08T11:21:27;7.78;;;2.13;;
27576;SDS011;15011;53.380;10.034;2022-12-08T11:26:32;5.53;;;1.75;;
27576;SDS011;15011;53.380;10.034;2022-12-08T11:31:37;6.13;;;1.92;;
27576;SDS011;15011;53.380;10.034;2022-12-08T11:36:40;2.90;;;1.92;;
27576;SDS011;15011;53.380;10.034;2022-12-08T11:41:41;2.85;;;1.50;;
27576;SDS011;15011;53.380;10.034;2022-12-08T11:47:44;2.28;;;1.77;;
27576;SDS011;15011;53.380;10.034;2022-12-08T11:52:34;3.45;;;2.00;;
27576;SDS011;15011;53.380;10.034;2022-12-08T11:57:41;5.45;;;1.63;;
27576;SDS011;15011;53.380;10.034;2022-12-08T12:02:47;2.63;;;1.90;;
27576;SDS011;15011;53.380;10.034;2022-12-08T12:23:09;2.30;;;1.38;;
27576;SDS011;15011;53.380;10.034;2022-12-08T12:28:16;1.90;;;1.37;;
27576;SDS011;15011;53.380;10.034;2022-12-08T12:33:16;1.58;;;1.20;;
27576;SDS011;15011;53.380;10.034;2022-12-08T12:43:40;2.65;;;1.20;;
27576;SDS011;15011;53.380;10.034;2022-12-08T12:54:40;2.53;;;1.30;;
27576;SDS011;15011;53.380;10.034;2022-12-08T13:10:20;1.85;;;1.73;;
27576;SDS011;15011;53.380;10.034;2022-12-08T13:15:23;2.45;;;1.50;;
27576;SDS011;15011;53.380;10.034;2022-12-08T13:20:24;3.80;;;1.52;;
27576;SDS011;15011;53.380;10.034;2022-12-08T13:30:45;2.92;;;1.45;;
27576;SDS011;15011;53.380;10.034;2022-12-08T13:35:49;2.40;;;1.88;;
27576;SDS011;15011;53.380;10.034;2022-12-08T13:40:54;2.13;;;1.50;;
27576;SDS011;15011;53.380;10.034;2022-12-08T13:45:54;3.30;;;1.50;;
27576;SDS011;15011;53.380;10.034;2022-12-08T13:56:33;2.85;;;1.77;;
27576;SDS011;15011;53.380;10.034;2022-12-08T14:01:42;2.65;;;1.60;;
27576;SDS011;15011;53.380;10.034;2022-12-08T14:06:44;3.58;;;1.60;;
27576;SDS011;15011;53.380;10.034;2022-12-08T14:16:56;5.07;;;2.97;;
27576;SDS011;15011;53.380;10.034;2022-12-08T14:21:59;6.03;;;2.83;;
27576;SDS011;15011;53.380;10.034;2022-12-08T14:27:04;9.10;;;3.72;;
27576;SDS011;15011;53.380;10.034;2022-12-08T14:32:20;7.13;;;3.58;;
27576;SDS011;15011;53.380;10.034;2022-12-08T14:37:27;4.88;;;3.80;;
27576;SDS011;15011;53.380;10.034;2022-12-08T14:42:30;7.97;;;4.47;;
27576;SDS011;15011;53.380;10.034;2022-12-08T14:47:42;6.90;;;4.72;;
27576;SDS011;15011;53.380;10.034;2022-12-08T14:52:42;9.73;;;6.25;;
27576;SDS011;15011;53.380;10.034;2022-12-08T14:57:45;8.13;;;4.97;;
27576;SDS011;15011;53.380;10.034;2022-12-08T15:02:47;7.30;;;4.88;;
27576;SDS011;15011;53.380;10.034;2022-12-08T15:07:49;8.82;;;4.70;;
27576;SDS011;15011;53.380;10.034;2022-12-08T15:13:02;7.00;;;5.15;;
27576;SDS011;15011;53.380;10.034;2022-12-08T15:18:10;8.25;;;5.60;;
27576;SDS011;15011;53.380;10.034;2022-12-08T15:28:20;9.50;;;5.20;;
27576;SDS011;15011;53.380;10.034;2022-12-08T15:33:22;9.85;;;5.80;;
27576;SDS011;15011;53.380;10.034;2022-12-08T15:38:23;10.52;;;6.00;;
27576;SDS011;15011;53.380;10.034;2022-12-08T15:43:25;8.07;;;5.43;;
27576;SDS011;15011;53.380;10.034;2022-12-08T15:48:27;11.45;;;5.97;;
27576;SDS011;15011;53.380;10.034;2022-12-08T15:53:28;7.22;;;5.30;;
27576;SDS011;15011;53.380;10.034;2022-12-08T15:58:29;11.50;;;7.60;;
27576;SDS011;15011;53.380;10.034;2022-12-08T16:03:29;12.45;;;7.68;;
27576;SDS011;15011;53.380;10.034;2022-12-08T16:08:30;17.77;;;10.80;;
27576;SDS011;15011;53.380;10.034;2022-12-08T16:13:31;15.95;;;9.00;;
27576;SDS011;15011;53.380;10.034;2022-12-08T16:18:50;14.68;;;8.07;;
27576;SDS011;15011;53.380;10.034;2022-12-08T16:23:50;15.50;;;9.05;;
27576;SDS011;15011;53.380;10.034;2022-12-08T16:28:51;15.27;;;9.55;;
27576;SDS011;15011;53.380;10.034;2022-12-08T16:33:51;17.58;;;12.18;;
27576;SDS011;15011;53.380;10.034;2022-12-08T16:38:52;34.42;;;20.75;;
27576;SDS011;15011;53.380;10.034;2022-12-08T16:43:52;24.80;;;14.75;;
27576;SDS011;15011;53.380;10.034;2022-12-08T16:48:53;31.60;;;20.52;;
27576;SDS011;15011;53.380;10.034;2022-12-08T16:53:54;33.75;;;20.90;;
27576;SDS011;15011;53.380;10.034;2022-12-08T16:58:55;30.33;;;19.60;;
27576;SDS011;15011;53.380;10.034;2022-12-08T17:03:56;36.72;;;21.50;;
27576;SDS011;15011;53.380;10.034;2022-12-08T17:08:56;32.63;;;19.05;;
27576;SDS011;15011;53.380;10.034;2022-12-08T17:13:57;32.40;;;17.98;;
27576;SDS011;15011;53.380;10.034;2022-12-08T17:18:58;35.33;;;19.00;;
27576;SDS011;15011;53.380;10.034;2022-12-08T17:23:58;30.98;;;17.98;;
27576;SDS011;15011;53.380;10.034;2022-12-08T17:29:00;31.38;;;17.83;;
27576;SDS011;15011;53.380;10.034;2022-12-08T17:34:02;29.95;;;15.38;;
27576;SDS011;15011;53.380;10.034;2022-12-08T17:39:04;30.02;;;15.05;;
27576;SDS011;15011;53.380;10.034;2022-12-08T17:44:11;25.70;;;15.02;;
27576;SDS011;15011;53.380;10.034;2022-12-08T17:49:17;21.08;;;14.13;;
27576;SDS011;15011;53.380;10.034;2022-12-08T17:54:22;35.80;;;14.40;;
27576;SDS011;15011;53.380;10.034;2022-12-08T17:59:24;26.15;;;15.68;;
27576;SDS011;15011;53.380;10.034;2022-12-08T18:04:26;27.23;;;16.75;;
27576;SDS011;15011;53.380;10.034;2022-12-08T18:09:28;29.25;;;18.45;;
27576;SDS011;15011;53.380;10.034;2022-12-08T18:19:30;28.33;;;17.05;;
27576;SDS011;15011;53.380;10.034;2022-12-08T18:24:30;26.75;;;16.25;;
27576;SDS011;15011;53.380;10.034;2022-12-08T18:29:31;19.90;;;14.20;;
27576;SDS011;15011;53.380;10.034;2022-12-08T18:34:31;26.83;;;17.00;;
27576;SDS011;15011;53.380;10.034;2022-12-08T18:39:33;25.85;;;17.48;;
27576;SDS011;15011;53.380;10.034;2022-12-08T18:44:34;25.30;;;16.40;;
27576;SDS011;15011;53.380;10.034;2022-12-08T18:49:34;33.25;;;19.63;;
27576;SDS011;15011;53.380;10.034;2022-12-08T18:54:36;31.00;;;17.40;;
27576;SDS011;15011;53.380;10.034;2022-12-08T18:59:37;23.70;;;15.43;;
27576;SDS011;15011;53.380;10.034;2022-12-08T19:04:37;29.58;;;18.27;;
27576;SDS011;15011;53.380;10.034;2022-12-08T19:09:38;33.63;;;19.00;;
27576;SDS011;15011;53.380;10.034;2022-12-08T19:14:39;32.63;;;20.15;;
27576;SDS011;15011;53.380;10.034;2022-12-08T19:19:40;27.02;;;17.75;;
27576;SDS011;15011;53.380;10.034;2022-12-08T19:24:40;27.02;;;17.33;;
27576;SDS011;15011;53.380;10.034;2022-12-08T19:29:40;27.52;;;18.05;;
27576;SDS011;15011;53.380;10.034;2022-12-08T19:34:41;25.90;;;16.83;;
27576;SDS011;15011;53.380;10.034;2022-12-08T19:39:41;27.17;;;18.00;;
27576;SDS011;15011;53.380;10.034;2022-12-08T19:45:02;42.20;;;22.67;;
27576;SDS011;15011;53.380;10.034;2022-12-08T19:50:06;55.30;;;27.77;;
27576;SDS011;15011;53.380;10.034;2022-12-08T19:55:26;57.78;;;26.13;;
27576;SDS011;15011;53.380;10.034;2022-12-08T20:00:27;79.60;;;29.58;;
27576;SDS011;15011;53.380;10.034;2022-12-08T20:05:29;298.40;;;29.00;;
27576;SDS011;15011;53.380;10.034;2022-12-08T20:10:32;214.43;;;36.22;;
27576;SDS011;15011;53.380;10.034;2022-12-08T20:15:34;402.83;;;38.63;;
27576;SDS011;15011;53.380;10.034;2022-12-08T20:20:35;412.63;;;40.17;;
27576;SDS011;15011;53.380;10.034;2022-12-08T20:25:39;373.17;;;40.50;;
27576;SDS011;15011;53.380;10.034;2022-12-08T20:30:41;611.53;;;49.40;;
27576;SDS011;15011;53.380;10.034;2022-12-08T20:35:42;515.17;;;49.67;;
27576;SDS011;15011;53.380;10.034;2022-12-08T20:40:43;410.10;;;35.90;;
27576;SDS011;15011;53.380;10.034;2022-12-08T20:45:46;541.85;;;40.00;;
27576;SDS011;15011;53.380;10.034;2022-12-08T20:50:48;751.30;;;53.75;;
27576;SDS011;15011;53.380;10.034;2022-12-08T20:55:50;525.58;;;51.65;;
27576;SDS011;15011;53.380;10.034;2022-12-08T21:00:50;491.92;;;43.47;;
27576;SDS011;15011;53.380;10.034;2022-12-08T21:05:51;328.58;;;40.55;;
27576;SDS011;15011;53.380;10.034;2022-12-08T21:10:52;246.35;;;34.30;;
27576;SDS011;15011;53.380;10.034;2022-12-08T21:15:54;304.70;;;35.63;;
27576;SDS011;15011;53.380;10.034;2022-12-08T21:21:01;398.25;;;38.75;;
27576;SDS011;15011;53.380;10.034;2022-12-08T21:26:13;333.10;;;35.50;;
27576;SDS011;15011;53.380;10.034;2022-12-08T21:31:20;420.10;;;39.63;;
27576;SDS011;15011;53.380;10.034;2022-12-08T21:36:21;452.58;;;40.53;;
27576;SDS011;15011;53.380;10.034;2022-12-08T21:41:22;328.25;;;36.45;;
27576;SDS011;15011;53.380;10.034;2022-12-08T21:46:41;267.48;;;33.65;;
27576;SDS011;15011;53.380;10.034;2022-12-08T21:51:42;405.85;;;40.53;;
27576;SDS011;15011;53.380;10.034;2022-12-08T21:56:43;310.50;;;36.15;;
27576;SDS011;15011;53.380;10.034;2022-12-08T22:01:44;256.73;;;34.33;;
27576;SDS011;15011;53.380;10.034;2022-12-08T22:06:44;305.80;;;44.80;;
27576;SDS011;15011;53.380;10.034;2022-12-08T22:11:45;392.55;;;43.97;;
27576;SDS011;15011;53.380;10.034;2022-12-08T22:16:45;250.27;;;40.70;;
27576;SDS011;15011;53.380;10.034;2022-12-08T22:21:46;177.80;;;34.65;;
27576;SDS011;15011;53.380;10.034;2022-12-08T22:26:46;302.45;;;45.67;;
27576;SDS011;15011;53.380;10.034;2022-12-08T22:31:47;312.42;;;45.78;;
27576;SDS011;15011;53.380;10.034;2022-12-08T22:36:47;260.73;;;47.78;;
27576;SDS011;15011;53.380;10.034;2022-12-08T22:41:47;316.10;;;51.58;;
27576;SDS011;15011;53.380;10.034;2022-12-08T22:46:48;291.75;;;53.05;;
27576;SDS011;15011;53.380;10.034;2022-12-08T22:51:49;215.25;;;40.20;;
27576;SDS011;15011;53.380;10.034;2022-12-08T22:56:49;266.17;;;42.53;;
27576;SDS011;15011;53.380;10.034;2022-12-08T23:01:50;438.00;;;54.40;;
27576;SDS011;15011;53.380;10.034;2022-12-08T23:06:52;323.95;;;50.97;;
27576;SDS011;15011;53.380;10.034;2022-12-08T23:11:53;183.07;;;47.30;;
27576;SDS011;15011;53.380;10.034;2022-12-08T23:16:54;220.98;;;43.03;;
27576;SDS011;15011;53.380;10.034;2022-12-08T23:21:54;297.60;;;53.85;;
27576;SDS011;15011;53.380;10.034;2022-12-08T23:26:55;305.67;;;52.85;;
27576;SDS011;15011;53.380;10.034;2022-12-08T23:31:55;298.92;;;46.83;;
27576;SDS011;15011;53.380;10.034;2022-12-08T23:36:56;205.02;;;47.25;;
27576;SDS011;15011;53.380;10.034;2022-12-08T23:41:56;304.77;;;47.25;;
27576;SDS011;15011;53.380;10.034;2022-12-08T23:46:57;185.48;;;46.58;;
27576;SDS011;15011;53.380;10.034;2022-12-08T23:51:57;185.15;;;49.00;;
27576;SDS011;15011;53.380;10.034;2022-12-08T23:56:58;236.02;;;44.55;;
